createdAt,value
2018-12-13T00:00:06.463Z,6.70
2018-12-13T00:02:33.954Z,7.17
2018-12-13T00:05:01.600Z,6.70
2018-12-13T00:07:29.235Z,6.80
2018-12-13T00:09:56.771Z,7.17
2018-12-13T00:12:24.258Z,6.90
2018-12-13T00:14:51.830Z,6.80
2018-12-13T00:17:19.493Z,6.70
2018-12-13T00:19:47.221Z,7.13
2018-12-13T00:22:14.704Z,7.30
2018-12-13T00:24:42.258Z,7.07
2018-12-13T00:27:09.776Z,7.27
2018-12-13T00:29:37.268Z,7.00
2018-12-13T00:32:04.875Z,7.30
2018-12-13T00:34:32.631Z,7.77
2018-12-13T00:37:00.159Z,8.10
2018-12-13T00:39:27.665Z,7.47
2018-12-13T00:41:55.152Z,7.67
2018-12-13T00:44:22.727Z,8.87
2018-12-13T00:46:50.436Z,7.60
2018-12-13T00:49:18.195Z,8.00
2018-12-13T00:51:46.595Z,7.60
2018-12-13T00:54:14.564Z,7.70
2018-12-13T00:56:42.098Z,7.70
2018-12-13T00:59:09.619Z,8.00
2018-12-13T01:01:37.189Z,7.60
2018-12-13T01:04:04.848Z,7.47
2018-12-13T01:06:32.648Z,7.20
2018-12-13T01:09:00.125Z,7.67
2018-12-13T01:11:27.769Z,7.40
2018-12-13T01:13:55.247Z,7.67
2018-12-13T01:16:23.498Z,7.20
2018-12-13T01:18:51.474Z,7.07
2018-12-13T01:21:20.860Z,7.27
2018-12-13T01:23:48.592Z,7.03
2018-12-13T01:26:16.153Z,7.00
2018-12-13T01:28:43.928Z,7.10
2018-12-13T01:31:12.568Z,7.37
2018-12-13T01:33:40.151Z,7.80
2018-12-13T01:36:07.827Z,7.43
2018-12-13T01:38:35.335Z,7.50
2018-12-13T01:41:02.830Z,7.13
2018-12-13T01:43:30.600Z,7.37
2018-12-13T01:45:58.084Z,6.70
2018-12-13T01:48:25.594Z,6.93
2018-12-13T01:50:53.469Z,6.83
2018-12-13T01:53:21.006Z,6.83
2018-12-13T01:55:48.900Z,6.90
2018-12-13T01:58:16.384Z,7.13
2018-12-13T02:00:43.920Z,7.27
2018-12-13T02:03:11.397Z,7.00
2018-12-13T02:05:39.050Z,6.93
2018-12-13T02:08:06.909Z,6.83
2018-12-13T02:10:34.393Z,7.20
2018-12-13T02:13:01.887Z,7.30
2018-12-13T02:15:29.410Z,7.17
2018-12-13T02:17:57.240Z,7.27
2018-12-13T02:20:25.189Z,6.97
2018-12-13T02:22:52.728Z,7.43
2018-12-13T02:25:20.604Z,7.67
2018-12-13T02:27:48.143Z,7.50
2018-12-13T02:30:17.669Z,7.50
2018-12-13T02:32:45.545Z,7.70
2018-12-13T02:35:13.317Z,8.20
2018-12-13T02:37:41.185Z,7.83
2018-12-13T02:40:08.739Z,8.77
2018-12-13T02:42:36.237Z,8.23
2018-12-13T02:45:03.897Z,8.93
2018-12-13T02:47:31.387Z,9.13
2018-12-13T02:49:59.045Z,9.37
2018-12-13T02:52:26.541Z,9.33
2018-12-13T02:54:54.336Z,9.90
2018-12-13T02:57:21.845Z,9.47
2018-12-13T02:59:49.336Z,10.20
2018-12-13T03:02:16.859Z,10.07
2018-12-13T03:04:44.917Z,10.43
2018-12-13T03:07:13.902Z,10.20
2018-12-13T03:09:41.837Z,10.20
2018-12-13T03:12:09.611Z,10.70
2018-12-13T03:14:37.184Z,10.97
2018-12-13T03:17:04.864Z,10.87
2018-12-13T03:19:32.523Z,11.77
2018-12-13T03:22:00.034Z,11.13
2018-12-13T03:24:27.582Z,11.30
2018-12-13T03:26:55.087Z,11.90
2018-12-13T03:29:22.623Z,11.60
2018-12-13T03:31:50.470Z,11.50
2018-12-13T03:34:18.265Z,11.27
2018-12-13T03:36:46.069Z,12.20
2018-12-13T03:39:13.961Z,11.83
2018-12-13T03:41:41.524Z,12.40
2018-12-13T03:44:09.063Z,12.53
2018-12-13T03:46:36.628Z,12.10
2018-12-13T03:49:04.134Z,12.60
2018-12-13T03:51:31.805Z,12.70
2018-12-13T03:53:59.386Z,12.63
2018-12-13T03:56:27.422Z,12.30
2018-12-13T03:58:54.929Z,12.47
2018-12-13T04:01:22.458Z,12.57
2018-12-13T04:03:50.400Z,12.27
2018-12-13T04:06:18.053Z,12.27
2018-12-13T04:08:45.641Z,12.70
2018-12-13T04:11:13.541Z,13.40
2018-12-13T04:13:41.040Z,13.27
2018-12-13T04:16:08.693Z,14.27
2018-12-13T04:18:36.632Z,14.70
2018-12-13T04:21:04.182Z,14.07
2018-12-13T04:23:31.952Z,14.80
2018-12-13T04:25:59.583Z,13.70
2018-12-13T04:28:27.087Z,14.80
2018-12-13T04:30:54.583Z,14.60
2018-12-13T04:33:22.132Z,16.03
2018-12-13T04:35:50.186Z,14.70
2018-12-13T04:38:17.715Z,15.47
2018-12-13T04:40:45.204Z,15.37
2018-12-13T04:43:12.726Z,16.20
2018-12-13T04:45:40.266Z,15.63
2018-12-13T04:48:07.752Z,16.10
2018-12-13T04:50:35.653Z,15.93
2018-12-13T04:53:03.191Z,15.23
2018-12-13T04:55:31.168Z,16.07
2018-12-13T04:57:58.744Z,15.93
2018-12-13T05:00:26.297Z,15.13
2018-12-13T05:02:54.395Z,15.43
2018-12-13T05:05:22.292Z,15.33
2018-12-13T05:07:49.810Z,15.33
2018-12-13T05:10:23.396Z,14.57
2018-12-13T05:12:51.051Z,15.73
2018-12-13T05:15:18.585Z,15.33
2018-12-13T05:17:46.073Z,16.13
2018-12-13T05:20:13.610Z,15.63
2018-12-13T05:22:41.409Z,15.70
2018-12-13T05:25:08.940Z,14.60
2018-12-13T05:27:36.486Z,15.80
2018-12-13T05:30:04.441Z,16.23
2018-12-13T05:32:32.156Z,16.97
2018-12-13T05:34:59.925Z,15.23
2018-12-13T05:37:27.777Z,16.37
2018-12-13T05:39:55.267Z,16.70
2018-12-13T05:42:22.756Z,15.53
2018-12-13T05:44:50.528Z,15.53
2018-12-13T05:47:18.022Z,16.13
2018-12-13T05:49:46.117Z,16.50
2018-12-13T05:52:13.757Z,16.07
2018-12-13T05:54:41.584Z,16.13
2018-12-13T05:57:09.079Z,15.87
2018-12-13T05:59:36.724Z,16.27
2018-12-13T06:02:04.229Z,16.10
2018-12-13T06:04:32.222Z,16.20
2018-12-13T06:06:59.704Z,16.07
2018-12-13T06:09:27.210Z,16.87
2018-12-13T06:11:54.759Z,16.50
2018-12-13T06:14:22.288Z,16.07
2018-12-13T06:16:50.050Z,16.47
2018-12-13T06:19:17.931Z,15.73
2018-12-13T06:21:45.423Z,16.83
2018-12-13T06:24:12.967Z,15.57
2018-12-13T06:26:40.472Z,15.93
2018-12-13T06:29:08.011Z,15.90
2018-12-13T06:31:35.535Z,17.30
2018-12-13T06:34:03.316Z,16.70
2018-12-13T06:36:31.401Z,16.00
2018-12-13T06:38:58.924Z,15.70
2018-12-13T06:41:26.769Z,14.87
2018-12-13T06:43:54.940Z,14.77
2018-12-13T06:46:22.504Z,14.90
2018-12-13T06:48:49.999Z,14.80
2018-12-13T06:51:17.687Z,15.93
2018-12-13T06:53:45.173Z,15.50
2018-12-13T06:56:12.777Z,16.60
2018-12-13T06:58:40.308Z,15.17
2018-12-13T07:01:08.238Z,15.90
2018-12-13T07:03:35.728Z,16.43
2018-12-13T07:06:03.637Z,16.30
2018-12-13T07:08:31.172Z,15.93
2018-12-13T07:10:58.674Z,15.80
2018-12-13T07:13:26.652Z,16.37
2018-12-13T07:15:54.152Z,15.97
2018-12-13T07:18:21.654Z,16.80
2018-12-13T07:20:49.279Z,15.93
2018-12-13T07:23:16.768Z,16.57
2018-12-13T07:25:44.264Z,16.40
2018-12-13T07:28:12.234Z,17.27
2018-12-13T07:30:40.155Z,16.20
2018-12-13T07:33:08.038Z,16.10
2018-12-13T07:35:36.061Z,16.20
2018-12-13T07:38:03.878Z,16.60
2018-12-13T07:40:31.470Z,15.70
2018-12-13T07:42:58.964Z,16.60
2018-12-13T07:45:26.687Z,16.57
2018-12-13T07:47:54.242Z,16.33
2018-12-13T07:50:21.883Z,14.97
2018-12-13T07:52:49.425Z,16.10
2018-12-13T07:55:17.193Z,16.27
2018-12-13T07:57:44.771Z,16.40
2018-12-13T08:00:12.502Z,16.77
2018-12-13T08:02:40.284Z,16.70
2018-12-13T08:05:08.329Z,15.97
2018-12-13T08:07:35.826Z,16.23
2018-12-13T08:10:03.960Z,16.27
2018-12-13T08:12:31.524Z,15.67
2018-12-13T08:14:59.077Z,15.97
2018-12-13T08:17:27.037Z,17.10
2018-12-13T08:19:54.744Z,16.87
2018-12-13T08:22:22.558Z,15.57
2018-12-13T08:24:50.353Z,15.10
2018-12-13T08:27:17.938Z,14.67
2018-12-13T08:29:45.636Z,15.20
2018-12-13T08:32:13.338Z,15.63
2018-12-13T08:34:41.147Z,15.30
2018-12-13T08:37:08.766Z,14.87
2018-12-13T08:39:36.788Z,15.60
2018-12-13T08:42:04.597Z,14.87
2018-12-13T08:44:32.138Z,16.00
2018-12-13T08:47:00.011Z,15.40
2018-12-13T08:49:27.752Z,15.07
2018-12-13T08:51:55.838Z,15.23
2018-12-13T08:54:23.796Z,14.33
2018-12-13T08:56:51.331Z,14.47
2018-12-13T08:59:18.874Z,14.60
2018-12-13T09:01:46.728Z,14.77
2018-12-13T09:04:14.620Z,15.03
2018-12-13T09:06:42.093Z,13.90
2018-12-13T09:09:09.639Z,13.83
2018-12-13T09:11:37.233Z,14.50
2018-12-13T09:14:04.750Z,13.43
2018-12-13T09:16:32.821Z,13.77
2018-12-13T09:19:00.600Z,14.30
2018-12-13T09:21:28.088Z,14.40
2018-12-13T09:23:55.618Z,13.70
2018-12-13T09:26:23.138Z,13.67
2018-12-13T09:28:50.637Z,12.40
2018-12-13T09:31:18.361Z,13.37
2018-12-13T09:33:46.629Z,13.37
2018-12-13T09:36:14.488Z,13.83
2018-12-13T09:38:42.234Z,12.27
2018-12-13T09:41:09.763Z,13.13
2018-12-13T09:43:38.066Z,13.30
2018-12-13T09:46:05.564Z,13.00
2018-12-13T09:48:33.617Z,12.60
2018-12-13T09:51:01.428Z,12.40
2018-12-13T09:53:28.925Z,12.60
2018-12-13T09:55:56.436Z,13.13
2018-12-13T09:58:23.952Z,13.57
2018-12-13T10:00:51.448Z,12.90
2018-12-13T10:03:18.954Z,12.97
2018-12-13T10:05:46.643Z,13.07
2018-12-13T10:08:14.644Z,13.37
2018-12-13T10:10:42.232Z,14.27
2018-12-13T10:13:10.817Z,13.83
2018-12-13T10:15:38.402Z,12.77
2018-12-13T10:18:05.950Z,13.50
2018-12-13T10:20:34.089Z,13.33
2018-12-13T10:23:01.818Z,13.07
2018-12-13T10:25:29.316Z,13.53
2018-12-13T10:27:56.823Z,13.27
2018-12-13T10:30:24.620Z,12.97
2018-12-13T10:32:52.272Z,13.20
2018-12-13T10:35:19.935Z,12.63
2018-12-13T10:37:47.689Z,12.40
2018-12-13T10:40:15.228Z,12.53
2018-12-13T10:42:42.715Z,13.93
2018-12-13T10:45:10.264Z,12.17
2018-12-13T10:47:37.841Z,13.00
2018-12-13T10:50:06.118Z,12.87
2018-12-13T10:52:34.225Z,13.27
2018-12-13T10:55:02.511Z,13.40
2018-12-13T10:57:30.003Z,12.50
2018-12-13T10:59:57.500Z,13.40
2018-12-13T11:02:30.988Z,13.43
2018-12-13T11:04:59.681Z,12.80
2018-12-13T11:07:27.226Z,13.40
2018-12-13T11:09:55.119Z,13.17
2018-12-13T11:12:22.834Z,12.73
2018-12-13T11:14:50.326Z,13.50
2018-12-13T11:17:17.825Z,12.87
2018-12-13T11:19:45.751Z,12.80
2018-12-13T11:22:13.571Z,13.33
2018-12-13T11:24:41.112Z,12.77
2018-12-13T11:27:15.932Z,12.27
2018-12-13T11:29:49.418Z,12.77
2018-12-13T11:32:16.995Z,11.67
2018-12-13T11:34:45.002Z,11.10
2018-12-13T11:37:12.785Z,11.17
2018-12-13T11:39:40.280Z,11.03
2018-12-13T11:42:07.782Z,11.20
2018-12-13T11:44:35.314Z,12.00
2018-12-13T11:47:02.844Z,11.50
2018-12-13T11:49:30.569Z,11.60
2018-12-13T11:51:58.070Z,11.53
2018-12-13T11:54:27.580Z,11.00
2018-12-13T11:56:55.097Z,11.93
2018-12-13T11:59:22.612Z,11.83
2018-12-13T12:01:50.722Z,11.87
2018-12-13T12:04:18.410Z,12.27
2018-12-13T12:06:45.938Z,11.87
2018-12-13T12:09:13.924Z,12.50
2018-12-13T12:11:41.425Z,12.77
2018-12-13T12:14:09.015Z,12.60
2018-12-13T12:16:36.897Z,12.10
2018-12-13T12:19:05.064Z,12.23
2018-12-13T12:21:32.560Z,12.77
2018-12-13T12:24:00.088Z,12.80
2018-12-13T12:26:28.520Z,13.47
2018-12-13T12:28:56.008Z,11.93
2018-12-13T12:31:23.512Z,11.93
2018-12-13T12:33:51.270Z,12.10
2018-12-13T12:36:19.555Z,12.30
2018-12-13T12:45:45.680Z,13.23
2018-12-13T12:48:13.708Z,13.30
2018-12-13T12:50:41.636Z,13.60
2018-12-13T12:53:09.083Z,14.00
2018-12-13T12:55:36.540Z,13.37
2018-12-13T12:58:04.613Z,13.97
2018-12-13T13:00:32.731Z,13.80
2018-12-13T13:03:00.187Z,14.30
2018-12-13T13:05:27.828Z,14.50
2018-12-13T13:07:55.284Z,13.23
2018-12-13T13:10:22.910Z,13.23
2018-12-13T13:12:50.764Z,12.97
2018-12-13T13:15:18.745Z,13.17
2018-12-13T13:17:46.216Z,13.27
2018-12-13T13:20:14.185Z,13.83
2018-12-13T13:22:41.691Z,13.40
2018-12-13T13:25:09.288Z,13.03
2018-12-13T13:27:36.950Z,14.00
2018-12-13T13:30:04.944Z,13.27
2018-12-13T13:32:32.627Z,14.60
2018-12-13T13:35:00.754Z,14.13
2018-12-13T13:37:28.564Z,13.97
2018-12-13T13:39:56.052Z,13.47
2018-12-13T13:42:24.369Z,13.07
2018-12-13T13:44:54.416Z,14.77
2018-12-13T13:47:22.566Z,13.20
2018-12-13T13:49:50.488Z,14.07
2018-12-13T13:52:18.019Z,13.37
2018-12-13T13:54:46.462Z,13.70
2018-12-13T13:57:14.259Z,13.67
2018-12-13T13:59:41.971Z,13.23
2018-12-13T14:02:09.532Z,13.20
2018-12-13T14:04:37.317Z,13.87
2018-12-13T14:07:04.890Z,13.57
2018-12-13T14:09:37.707Z,13.83
2018-12-13T14:12:01.939Z,13.90
2018-12-13T14:14:29.773Z,13.77
2018-12-13T14:16:57.613Z,14.40
2018-12-13T14:19:25.332Z,14.40
2018-12-13T14:21:53.200Z,15.03
2018-12-13T14:24:20.661Z,14.50
2018-12-13T14:26:48.220Z,14.67
2018-12-13T14:29:16.036Z,14.97
2018-12-13T14:31:43.730Z,15.53
2018-12-13T14:34:11.632Z,15.67
2018-12-13T14:36:39.398Z,14.60
2018-12-13T14:39:06.987Z,15.67
2018-12-13T14:41:34.562Z,16.03
2018-12-13T14:44:02.307Z,15.70
2018-12-13T14:46:29.762Z,15.60
2018-12-13T14:48:57.437Z,16.47
2018-12-13T14:51:25.392Z,16.30
2018-12-13T14:53:52.850Z,16.40
2018-12-13T14:56:20.302Z,16.50
2018-12-13T14:58:47.815Z,15.87
2018-12-13T15:01:15.638Z,16.60
2018-12-13T15:03:44.091Z,17.07
2018-12-13T15:06:11.589Z,16.80
2018-12-13T15:08:39.085Z,17.07
2018-12-13T15:11:06.612Z,17.13
2018-12-13T15:13:34.215Z,17.60
2018-12-13T15:16:01.754Z,17.63
2018-12-13T15:18:29.890Z,15.83
2018-12-13T15:20:57.571Z,17.87
2018-12-13T15:23:25.073Z,17.60
2018-12-13T15:25:52.610Z,18.23
2018-12-13T15:28:20.381Z,17.50
2018-12-13T15:30:47.916Z,17.57
2018-12-13T15:33:15.609Z,17.50
2018-12-13T15:35:43.361Z,17.17
2018-12-13T15:38:10.889Z,17.60
2018-12-13T15:40:38.388Z,17.27
2018-12-13T15:43:06.156Z,18.50
2018-12-13T15:45:33.900Z,17.70
2018-12-13T15:48:01.428Z,17.63
2018-12-13T15:50:29.343Z,18.17
2018-12-13T15:52:56.832Z,17.83
2018-12-13T15:55:24.730Z,18.27
2018-12-13T15:57:52.265Z,17.73
2018-12-13T16:00:19.765Z,17.53
2018-12-13T16:02:47.276Z,18.07
2018-12-13T16:05:14.992Z,18.60
2018-12-13T16:07:42.479Z,17.87
2018-12-13T16:10:10.566Z,17.53
2018-12-13T16:12:38.048Z,18.40
2018-12-13T16:15:05.599Z,18.13
2018-12-13T16:17:33.408Z,17.87
2018-12-13T16:20:01.354Z,18.03
2018-12-13T16:22:28.862Z,17.87
2018-12-13T16:24:56.345Z,18.83
2018-12-13T16:27:23.905Z,18.00
2018-12-13T16:29:51.543Z,18.00
2018-12-13T16:32:19.441Z,18.17
2018-12-13T16:34:47.511Z,18.70
2018-12-13T16:37:15.456Z,17.97
2018-12-13T16:39:42.939Z,17.87
2018-12-13T16:42:10.446Z,18.90
2018-12-13T16:44:38.297Z,18.03
2018-12-13T16:47:05.836Z,17.43
2018-12-13T16:49:33.757Z,20.17
2018-12-13T16:52:01.740Z,18.87
2018-12-13T16:54:29.240Z,17.63
2018-12-13T16:56:56.789Z,18.77
2018-12-13T16:59:24.280Z,19.80
2018-12-13T17:01:52.160Z,18.13
2018-12-13T17:04:19.977Z,17.50
2018-12-13T17:06:47.510Z,19.07
2018-12-13T17:09:15.462Z,18.67
2018-12-13T17:11:42.999Z,17.60
2018-12-13T17:14:10.453Z,20.17
2018-12-13T17:16:38.169Z,21.57
2018-12-13T17:19:05.845Z,17.47
2018-12-13T17:21:33.332Z,18.60
2018-12-13T17:24:00.883Z,18.00
2018-12-13T17:26:28.417Z,17.53
2018-12-13T17:28:55.949Z,18.20
2018-12-13T17:31:23.542Z,17.47
2018-12-13T17:33:51.707Z,16.23
2018-12-13T17:36:19.597Z,17.07
2018-12-13T17:38:47.133Z,17.37
2018-12-13T17:41:14.658Z,17.63
2018-12-13T17:43:42.342Z,17.27
2018-12-13T17:46:10.137Z,17.93
2018-12-13T17:48:37.984Z,17.27
2018-12-13T17:51:05.902Z,16.80
2018-12-13T17:53:33.794Z,17.47
2018-12-13T17:56:01.644Z,17.43
2018-12-13T17:58:29.132Z,17.70
2018-12-13T18:00:56.666Z,17.43
2018-12-13T18:03:24.399Z,17.73
2018-12-13T18:05:52.266Z,18.03
2018-12-13T18:08:19.777Z,16.97
2018-12-13T18:10:47.269Z,18.80
2018-12-13T18:13:14.814Z,18.10
2018-12-13T18:15:42.322Z,18.13
2018-12-13T18:18:09.816Z,18.37
2018-12-13T18:20:37.510Z,18.10
2018-12-13T18:23:05.020Z,18.40
2018-12-13T18:25:32.561Z,18.70
2018-12-13T18:28:00.093Z,16.97
2018-12-13T18:30:27.757Z,17.10
2018-12-13T18:32:56.031Z,15.97
2018-12-13T18:35:23.856Z,15.93
2018-12-13T18:37:51.585Z,16.90
2018-12-13T18:40:19.108Z,15.60
2018-12-13T18:42:46.970Z,16.53
2018-12-13T18:45:14.954Z,15.77
2018-12-13T18:47:42.495Z,16.37
2018-12-13T18:50:10.281Z,17.00
2018-12-13T18:52:37.895Z,16.60
2018-12-13T18:55:05.436Z,15.63
2018-12-13T18:57:33.240Z,16.40
2018-12-13T19:00:00.775Z,16.13
2018-12-13T19:02:28.299Z,16.03
2018-12-13T19:04:56.224Z,16.03
2018-12-13T19:07:23.722Z,16.63
2018-12-13T19:09:51.255Z,15.87
2018-12-13T19:12:18.765Z,16.50
2018-12-13T19:14:46.268Z,17.50
2018-12-13T19:17:13.761Z,16.37
2018-12-13T19:19:41.593Z,16.20
2018-12-13T19:22:09.090Z,16.70
2018-12-13T19:24:36.580Z,16.87
2018-12-13T19:27:04.700Z,16.57
2018-12-13T19:29:32.288Z,16.40
2018-12-13T19:32:00.137Z,16.07
2018-12-13T19:34:28.167Z,16.10
2018-12-13T19:36:56.724Z,17.20
2018-12-13T19:39:24.217Z,16.20
2018-12-13T19:41:51.747Z,16.20
2018-12-13T19:44:19.566Z,16.50
2018-12-13T19:46:47.570Z,16.37
2018-12-13T19:49:15.492Z,16.20
2018-12-13T19:51:43.312Z,16.70
2018-12-13T19:54:10.927Z,15.97
2018-12-13T19:56:38.732Z,16.30
2018-12-13T19:59:06.213Z,16.27
2018-12-13T20:01:33.750Z,16.80
2018-12-13T20:04:02.030Z,16.47
2018-12-13T20:08:56.656Z,15.47
2018-12-13T20:11:24.188Z,17.03
2018-12-13T20:13:51.680Z,17.83
2018-12-13T20:16:19.341Z,16.70
2018-12-13T20:18:48.488Z,16.47
2018-12-13T20:21:16.136Z,16.60
2018-12-13T20:23:43.637Z,16.23
2018-12-13T20:26:11.413Z,16.30
2018-12-13T20:28:39.041Z,16.60
2018-12-13T20:31:06.602Z,16.50
2018-12-13T20:33:34.647Z,16.23
2018-12-13T20:36:02.420Z,16.23
2018-12-13T20:38:29.973Z,16.97
2018-12-13T20:41:00.930Z,17.10
2018-12-13T20:43:27.172Z,16.80
2018-12-13T20:45:55.137Z,17.27
2018-12-13T20:48:22.629Z,16.33
2018-12-13T20:50:50.346Z,16.17
2018-12-13T20:53:17.843Z,17.03
2018-12-13T20:55:45.631Z,16.50
2018-12-13T20:58:13.121Z,17.07
2018-12-13T21:00:41.136Z,17.07
2018-12-13T21:03:08.675Z,16.37
2018-12-13T21:05:36.483Z,16.43
2018-12-13T21:08:09.512Z,16.17
2018-12-13T21:10:37.864Z,15.80
2018-12-13T21:13:05.494Z,16.47
2018-12-13T21:15:33.028Z,16.80
2018-12-13T21:18:00.701Z,16.80
2018-12-13T21:20:28.550Z,16.10
2018-12-13T21:22:56.101Z,16.43
2018-12-13T21:25:23.690Z,16.07
2018-12-13T21:27:51.185Z,15.73
2018-12-13T21:30:18.693Z,16.00
2018-12-13T21:32:46.431Z,16.00
2018-12-13T21:35:15.545Z,15.93
2018-12-13T21:37:43.295Z,15.73
2018-12-13T21:40:10.788Z,15.17
2018-12-13T21:45:03.548Z,16.00
2018-12-13T21:47:31.301Z,16.10
2018-12-13T21:49:59.199Z,15.83
2018-12-13T21:52:26.697Z,16.13
2018-12-13T21:54:54.344Z,15.53
2018-12-13T21:57:22.168Z,16.50
2018-12-13T21:59:49.706Z,16.13
2018-12-13T22:02:17.298Z,15.73
2018-12-13T22:04:45.177Z,15.23
2018-12-13T22:07:12.680Z,14.80
2018-12-13T22:09:40.172Z,15.07
2018-12-13T22:12:07.704Z,15.17
2018-12-13T22:14:35.199Z,15.23
2018-12-13T22:17:02.696Z,15.33
2018-12-13T22:19:30.570Z,15.60
2018-12-13T22:21:58.103Z,15.20
2018-12-13T22:24:25.640Z,16.03
2018-12-13T22:26:53.455Z,15.40
2018-12-13T22:29:20.984Z,15.50
2018-12-13T22:31:49.008Z,15.90
2018-12-13T22:34:16.550Z,16.13
2018-12-13T22:36:44.175Z,16.03
2018-12-13T22:39:11.706Z,15.67
2018-12-13T22:41:39.312Z,15.53
2018-12-13T22:44:07.038Z,15.97
2018-12-13T22:46:34.568Z,16.17
2018-12-13T22:49:02.072Z,15.53
2018-12-13T22:51:29.860Z,16.53
2018-12-13T22:53:57.440Z,15.67
2018-12-13T22:56:24.953Z,16.27
2018-12-13T22:58:52.515Z,15.43
2018-12-13T23:01:20.070Z,15.37
2018-12-13T23:03:47.616Z,15.77
2018-12-13T23:06:15.173Z,16.30
2018-12-13T23:08:42.706Z,15.90
2018-12-13T23:11:10.265Z,15.77
2018-12-13T23:13:37.769Z,15.83
2018-12-13T23:16:05.334Z,15.00
2018-12-13T23:18:33.016Z,15.93
2018-12-13T23:21:00.857Z,16.83
2018-12-13T23:23:28.358Z,16.30
2018-12-13T23:25:56.065Z,15.77
2018-12-13T23:28:23.635Z,15.83
2018-12-13T23:30:51.545Z,15.87
2018-12-13T23:33:19.228Z,15.87
2018-12-13T23:35:46.866Z,15.10
2018-12-13T23:38:14.508Z,16.20
2018-12-13T23:40:42.143Z,16.90
2018-12-13T23:43:09.751Z,16.13
2018-12-13T23:45:38.577Z,16.43
2018-12-13T23:48:06.116Z,16.17
2018-12-13T23:50:33.766Z,16.13
2018-12-13T23:53:01.271Z,16.37
2018-12-13T23:55:28.773Z,15.83
2018-12-13T23:57:56.343Z,15.53
